createdAt,value
2019-06-07T00:01:01.439Z,10.47
2019-06-07T00:03:30.227Z,9.70
2019-06-07T00:05:55.648Z,8.67
2019-06-07T00:08:27.922Z,8.47
2019-06-07T00:10:49.808Z,7.50
2019-06-07T00:13:18.804Z,7.60
2019-06-07T00:15:43.965Z,7.90
2019-06-07T00:18:13.571Z,8.33
2019-06-07T00:20:38.039Z,8.87
2019-06-07T00:23:04.357Z,10.10
2019-06-07T00:25:30.531Z,9.63
2019-06-07T00:27:56.931Z,9.57
2019-06-07T00:30:42.256Z,9.80
2019-06-07T00:32:51.855Z,9.80
2019-06-07T00:35:21.024Z,8.80
2019-06-07T00:37:46.553Z,8.90
2019-06-07T00:40:17.777Z,12.30
2019-06-07T00:42:41.123Z,9.10
2019-06-07T00:45:08.569Z,9.20
2019-06-07T00:47:35.961Z,8.80
2019-06-07T00:50:03.580Z,8.67
2019-06-07T00:54:59.455Z,9.20
2019-06-07T00:57:25.635Z,10.43
2019-06-07T00:59:51.984Z,9.77
2019-06-07T01:02:21.422Z,9.43
2019-06-07T01:04:46.675Z,8.73
2019-06-07T01:07:13.239Z,7.87
2019-06-07T01:09:39.345Z,7.30
2019-06-07T01:12:05.648Z,7.53
2019-06-07T01:14:31.727Z,8.37
2019-06-07T01:17:22.032Z,8.13
2019-06-07T01:19:27.774Z,7.93
2019-06-07T01:21:54.789Z,8.67
2019-06-07T01:24:24.546Z,13.13
2019-06-07T01:26:48.927Z,15.70
2019-06-07T01:29:17.850Z,8.60
2019-06-07T01:31:44.240Z,10.40
2019-06-07T01:34:10.628Z,11.60
2019-06-07T01:36:36.732Z,11.23
2019-06-07T01:39:05.174Z,11.70
2019-06-07T01:41:31.413Z,11.40
2019-06-07T01:43:58.405Z,12.97
2019-06-07T01:46:26.743Z,12.83
2019-06-07T01:48:52.581Z,11.00
2019-06-07T01:51:19.985Z,10.47
2019-06-07T01:53:46.351Z,10.87
2019-06-07T01:56:12.609Z,11.30
2019-06-07T01:58:38.847Z,12.47
2019-06-07T02:01:05.297Z,10.90
2019-06-07T02:03:33.325Z,10.23
2019-06-07T02:05:59.448Z,10.10
2019-06-07T02:08:27.249Z,9.47
2019-06-07T02:10:53.494Z,8.67
2019-06-07T02:13:20.909Z,9.53
2019-06-07T02:15:47.438Z,10.20
2019-06-07T02:18:13.676Z,10.37
2019-06-07T02:20:39.751Z,10.90
2019-06-07T02:23:05.837Z,13.87
2019-06-07T02:25:45.486Z,10.87
2019-06-07T02:28:26.386Z,10.93
2019-06-07T02:30:46.079Z,15.00
2019-06-07T02:32:57.408Z,15.90
2019-06-07T02:35:30.902Z,10.33
2019-06-07T02:37:51.586Z,10.07
2019-06-07T02:40:18.184Z,10.60
2019-06-07T02:42:44.370Z,14.33
2019-06-07T02:45:11.227Z,14.43
2019-06-07T02:47:38.471Z,14.13
2019-06-07T02:50:07.954Z,12.80
2019-06-07T02:52:39.901Z,12.83
2019-06-07T02:55:04.398Z,13.83
2019-06-07T02:57:36.993Z,13.47
2019-06-07T03:00:16.083Z,14.83
2019-06-07T03:02:32.809Z,16.93
2019-06-07T03:04:56.099Z,19.57
2019-06-07T03:07:24.029Z,21.13
2019-06-07T03:09:50.583Z,17.90
2019-06-07T03:12:18.909Z,19.83
2019-06-07T03:14:45.557Z,16.70
2019-06-07T03:17:15.005Z,17.13
2019-06-07T03:19:41.957Z,14.50
2019-06-07T03:22:08.462Z,16.53
2019-06-07T03:24:36.214Z,18.67
2019-06-07T03:27:34.287Z,13.97
2019-06-07T03:29:33.823Z,14.13
2019-06-07T03:32:01.023Z,15.30
2019-06-07T03:34:29.729Z,13.97
2019-06-07T03:36:55.088Z,12.53
2019-06-07T03:39:21.448Z,19.57
2019-06-07T03:42:05.025Z,10.60
2019-06-07T03:44:15.864Z,9.60
2019-06-07T03:46:42.080Z,10.17
2019-06-07T03:49:08.164Z,9.67
2019-06-07T03:51:35.700Z,9.20
2019-06-07T03:54:03.902Z,9.83
2019-06-07T03:56:31.777Z,8.60
2019-06-07T03:58:58.054Z,9.97
2019-06-07T04:01:24.348Z,10.50
2019-06-07T04:03:52.141Z,10.57
2019-06-07T04:06:18.621Z,11.43
2019-06-07T04:08:45.019Z,11.93
2019-06-07T04:11:11.393Z,11.00
2019-06-07T04:13:42.571Z,14.20
2019-06-07T04:16:05.795Z,12.00
2019-06-07T04:18:33.086Z,11.60
2019-06-07T04:20:59.922Z,10.50
2019-06-07T04:23:29.943Z,9.83
2019-06-07T04:25:55.258Z,11.37
2019-06-07T04:28:21.337Z,11.20
2019-06-07T04:30:47.593Z,11.37
2019-06-07T04:33:13.904Z,11.87
2019-06-07T04:35:42.885Z,10.90
2019-06-07T04:38:10.558Z,12.67
2019-06-07T04:40:42.473Z,12.60
2019-06-07T04:43:07.861Z,10.30
2019-06-07T04:45:41.849Z,12.20
2019-06-07T04:48:05.105Z,11.67
2019-06-07T04:50:34.335Z,10.70
2019-06-07T04:53:00.370Z,12.13
2019-06-07T04:55:26.936Z,11.30
2019-06-07T04:57:53.114Z,10.50
2019-06-07T05:00:52.806Z,10.53
2019-06-07T05:02:59.269Z,10.30
2019-06-07T05:05:25.518Z,10.77
2019-06-07T05:07:51.705Z,9.70
2019-06-07T05:10:17.967Z,10.10
2019-06-07T05:12:45.037Z,9.40
2019-06-07T05:15:12.854Z,9.40
2019-06-07T05:17:42.513Z,9.70
2019-06-07T05:20:07.122Z,10.20
2019-06-07T05:22:34.889Z,10.93
2019-06-07T05:25:01.386Z,11.53
2019-06-07T05:27:27.566Z,11.63
2019-06-07T05:30:50.671Z,12.60
2019-06-07T05:32:22.070Z,13.90
2019-06-07T05:34:48.416Z,13.80
2019-06-07T05:37:14.738Z,13.20
2019-06-07T05:39:45.549Z,14.20
2019-06-07T05:42:09.479Z,13.70
2019-06-07T05:44:36.509Z,12.43
2019-06-07T05:47:03.314Z,12.30
2019-06-07T05:49:29.397Z,11.27
2019-06-07T05:51:55.599Z,11.57
2019-06-07T05:54:21.691Z,11.60
2019-06-07T05:56:47.791Z,10.57
2019-06-07T05:59:14.294Z,8.30
2019-06-07T06:01:48.000Z,7.37
2019-06-07T06:04:08.554Z,6.90
2019-06-07T06:06:36.345Z,6.73
2019-06-07T06:09:13.849Z,6.93
2019-06-07T06:11:45.889Z,6.50
2019-06-07T06:14:07.579Z,6.90
2019-06-07T06:16:29.254Z,7.43
2019-06-07T06:18:55.436Z,8.40
2019-06-07T06:21:21.563Z,8.00
2019-06-07T06:23:52.087Z,7.67
2019-06-07T06:26:16.907Z,8.20
2019-06-07T06:28:45.263Z,8.07
2019-06-07T06:31:11.153Z,8.67
2019-06-07T06:33:37.518Z,8.27
2019-06-07T06:36:03.709Z,7.93
2019-06-07T06:38:29.802Z,8.73
2019-06-07T06:41:14.742Z,8.17
2019-06-07T06:43:24.035Z,9.07
2019-06-07T06:45:50.775Z,9.20
2019-06-07T06:48:16.970Z,8.47
2019-06-07T06:50:44.427Z,8.40
2019-06-07T06:53:11.079Z,8.80
2019-06-07T06:55:37.369Z,8.57
2019-06-07T06:58:03.625Z,8.58
2019-06-07T07:00:55.437Z,10.05
2019-06-07T07:05:46.285Z,9.53
2019-06-07T07:08:12.917Z,9.83
2019-06-07T07:10:43.663Z,11.08
2019-06-07T07:13:12.028Z,11.75
2019-06-07T07:15:38.343Z,10.45
2019-06-07T07:18:08.752Z,9.93
2019-06-07T07:20:32.639Z,10.40
2019-06-07T07:22:58.986Z,9.90
2019-06-07T07:25:25.324Z,10.70
2019-06-07T07:27:54.949Z,10.60
2019-06-07T07:30:47.510Z,9.90
2019-06-07T07:33:14.636Z,9.50
2019-06-07T07:36:04.749Z,9.33
2019-06-07T07:38:10.397Z,9.20
2019-06-07T07:40:56.979Z,10.90
2019-06-07T07:43:05.099Z,11.80
2019-06-07T07:45:31.379Z,11.27
2019-06-07T07:48:13.757Z,12.03
2019-06-07T07:50:25.469Z,11.90
2019-06-07T07:52:56.017Z,10.97
2019-06-07T07:55:20.426Z,11.13
2019-06-07T07:57:48.676Z,10.70
2019-06-07T08:00:49.527Z,10.70
2019-06-07T08:02:43.632Z,10.70
2019-06-07T08:05:25.314Z,10.37
2019-06-07T08:07:39.346Z,12.50
2019-06-07T08:10:06.507Z,11.53
2019-06-07T08:12:55.146Z,11.40
2019-06-07T08:15:03.674Z,10.97
2019-06-07T08:17:31.025Z,10.07
2019-06-07T08:19:57.730Z,10.43
2019-06-07T08:22:24.632Z,9.63
2019-06-07T08:24:52.985Z,10.90
2019-06-07T08:27:26.324Z,10.90
2019-06-07T08:30:03.834Z,11.40
2019-06-07T08:32:15.298Z,11.03
2019-06-07T08:34:41.502Z,10.83
2019-06-07T08:37:07.646Z,12.53
2019-06-07T08:39:33.895Z,10.93
2019-06-07T08:42:14.827Z,10.47
2019-06-07T08:44:28.284Z,10.93
2019-06-07T08:47:16.043Z,9.53
2019-06-07T08:49:22.497Z,9.07
2019-06-07T08:51:48.905Z,9.60
2019-06-07T08:54:22.799Z,9.80
2019-06-07T08:56:43.757Z,9.77
2019-06-07T08:59:11.508Z,9.70
2019-06-07T09:01:37.912Z,9.27
2019-06-07T09:04:09.757Z,8.13
2019-06-07T09:09:01.970Z,9.00
2019-06-07T09:11:29.265Z,8.63
2019-06-07T09:13:57.202Z,7.93
2019-06-07T09:16:23.780Z,7.43
2019-06-07T09:18:49.868Z,6.95
2019-06-07T09:21:16.028Z,7.60
2019-06-07T09:23:42.434Z,7.47
2019-06-07T09:26:17.618Z,7.60
2019-06-07T09:28:37.452Z,7.93
2019-06-07T09:31:09.521Z,8.40
2019-06-07T09:33:31.864Z,7.80
2019-06-07T09:36:00.741Z,7.17
2019-06-07T09:38:26.958Z,6.40
2019-06-07T09:40:53.327Z,6.00
2019-06-07T09:43:59.954Z,5.75
2019-06-07T09:45:47.454Z,5.45
2019-06-07T09:48:23.924Z,5.08
2019-06-07T09:50:41.814Z,5.15
2019-06-07T09:53:20.888Z,5.25
2019-06-07T09:55:37.395Z,5.33
2019-06-07T09:58:47.774Z,5.40
2019-06-07T10:00:40.529Z,5.10
2019-06-07T10:03:05.603Z,6.42
2019-06-07T10:05:27.912Z,6.90
2019-06-07T10:08:07.246Z,6.30
2019-06-07T10:12:51.233Z,6.53
2019-06-07T10:15:17.521Z,7.65
2019-06-07T10:17:43.683Z,6.35
2019-06-07T10:20:10.888Z,5.95
2019-06-07T10:22:39.954Z,7.65
2019-06-07T10:25:06.530Z,6.63
2019-06-07T10:27:34.293Z,6.37
2019-06-07T10:30:02.209Z,6.45
2019-06-07T10:32:28.542Z,6.47
2019-06-07T10:34:54.653Z,6.60
2019-06-07T10:37:20.819Z,7.05
2019-06-07T10:39:48.978Z,6.63
2019-06-07T10:42:15.096Z,6.47
2019-06-07T10:44:41.293Z,6.28
2019-06-07T10:47:08.164Z,6.78
2019-06-07T10:49:34.362Z,6.25
2019-06-07T10:52:03.333Z,6.78
2019-06-07T10:54:30.839Z,6.40
2019-06-07T10:56:56.684Z,6.40
2019-06-07T10:59:22.773Z,5.92
2019-06-07T11:01:48.839Z,6.50
2019-06-07T11:04:15.000Z,6.70
2019-06-07T11:06:41.148Z,6.60
2019-06-07T11:09:07.937Z,6.75
2019-06-07T11:11:34.359Z,7.35
2019-06-07T11:14:00.629Z,6.50
2019-06-07T11:16:26.775Z,7.10
2019-06-07T11:18:52.868Z,6.72
2019-06-07T11:21:19.013Z,6.92
2019-06-07T11:23:45.839Z,6.20
2019-06-07T11:26:12.498Z,6.00
2019-06-07T11:28:38.744Z,6.70
2019-06-07T11:31:06.237Z,6.90
2019-06-07T11:33:32.638Z,7.05
2019-06-07T11:36:20.811Z,7.47
2019-06-07T11:38:46.879Z,7.15
2019-06-07T11:41:13.568Z,7.45
2019-06-07T11:43:39.804Z,6.72
2019-06-07T11:46:06.778Z,7.20
2019-06-07T11:48:33.364Z,7.40
2019-06-07T11:50:59.415Z,8.08
2019-06-07T11:53:27.094Z,7.58
2019-06-07T11:55:53.162Z,8.28
2019-06-07T11:58:21.757Z,8.33
2019-06-07T12:00:47.375Z,8.03
2019-06-07T12:03:13.967Z,8.53
2019-06-07T12:05:40.265Z,7.62
2019-06-07T12:08:07.972Z,8.10
2019-06-07T12:10:42.638Z,8.33
2019-06-07T12:13:03.058Z,7.83
2019-06-07T12:15:29.309Z,8.15
2019-06-07T12:17:55.912Z,8.58
2019-06-07T12:20:22.456Z,8.50
2019-06-07T12:22:48.654Z,8.25
2019-06-07T12:25:19.725Z,8.20
2019-06-07T12:27:42.999Z,8.20
2019-06-07T12:30:17.505Z,8.68
2019-06-07T12:32:38.040Z,9.20
2019-06-07T12:35:06.088Z,8.20
2019-06-07T12:37:43.192Z,7.58
2019-06-07T12:40:00.279Z,7.28
2019-06-07T12:42:26.356Z,7.60
2019-06-07T12:44:52.427Z,7.05
2019-06-07T12:47:18.931Z,7.40
2019-06-07T12:49:45.079Z,6.55
2019-06-07T12:52:13.931Z,7.85
2019-06-07T12:54:39.342Z,6.85
2019-06-07T12:57:05.566Z,7.33
2019-06-07T12:59:31.635Z,7.37
2019-06-07T13:02:02.246Z,7.10
2019-06-07T13:04:27.655Z,6.65
2019-06-07T13:06:53.698Z,6.72
2019-06-07T13:09:19.916Z,6.12
2019-06-07T13:11:46.205Z,6.67
2019-06-07T13:14:12.428Z,6.55
2019-06-07T13:16:38.627Z,6.30
2019-06-07T13:19:04.722Z,6.47
2019-06-07T13:21:30.909Z,6.33
2019-06-07T13:23:56.992Z,6.47
2019-06-07T13:26:24.931Z,5.20
2019-06-07T13:28:51.482Z,6.12
2019-06-07T13:31:18.776Z,6.53
2019-06-07T13:33:45.131Z,6.22
2019-06-07T13:36:11.215Z,6.50
2019-06-07T13:38:37.383Z,6.40
2019-06-07T13:41:04.483Z,6.15
2019-06-07T13:43:30.879Z,6.45
2019-06-07T13:45:57.489Z,6.35
2019-06-07T13:48:23.682Z,6.20
2019-06-07T13:50:49.728Z,6.40
2019-06-07T13:53:15.891Z,6.30
2019-06-07T13:55:42.194Z,6.20
2019-06-07T13:58:08.257Z,6.22
2019-06-07T14:00:34.782Z,6.47
2019-06-07T14:03:01.080Z,6.10
2019-06-07T14:05:27.371Z,6.62
2019-06-07T14:07:54.271Z,6.00
2019-06-07T14:10:21.598Z,6.40
2019-06-07T14:12:48.165Z,7.25
2019-06-07T14:15:15.175Z,6.65
2019-06-07T14:17:41.312Z,6.70
2019-06-07T14:20:07.870Z,6.40
2019-06-07T14:22:34.104Z,6.25
2019-06-07T14:25:00.610Z,6.55
2019-06-07T14:27:27.592Z,6.40
2019-06-07T14:29:53.885Z,6.80
2019-06-07T14:32:19.941Z,6.83
2019-06-07T14:34:46.021Z,6.70
2019-06-07T14:37:12.243Z,6.53
2019-06-07T14:39:38.474Z,6.87
2019-06-07T14:42:09.875Z,6.55
2019-06-07T14:44:33.884Z,6.55
2019-06-07T14:47:00.303Z,6.45
2019-06-07T14:49:26.462Z,6.20
2019-06-07T14:51:52.968Z,6.10
2019-06-07T14:54:19.078Z,5.65
2019-06-07T14:56:45.549Z,6.00
2019-06-07T14:59:12.164Z,5.78
2019-06-07T15:01:40.714Z,5.95
2019-06-07T15:04:06.889Z,6.10
2019-06-07T15:06:39.353Z,6.28
2019-06-07T15:09:06.355Z,6.33
2019-06-07T15:11:33.112Z,6.55
2019-06-07T15:13:59.360Z,6.22
2019-06-07T15:16:25.617Z,5.70
2019-06-07T15:18:51.915Z,6.50
2019-06-07T15:21:18.618Z,5.83
2019-06-07T15:23:45.443Z,6.08
2019-06-07T15:26:11.631Z,6.15
2019-06-07T15:28:38.496Z,6.80
2019-06-07T15:31:04.711Z,6.65
2019-06-07T15:33:31.839Z,7.03
2019-06-07T15:35:58.116Z,6.17
2019-06-07T15:38:24.171Z,6.40
2019-06-07T15:40:50.396Z,5.87
2019-06-07T15:43:16.474Z,6.87
2019-06-07T15:45:43.363Z,6.40
2019-06-07T15:48:09.539Z,6.22
2019-06-07T15:50:36.151Z,6.42
2019-06-07T15:53:02.401Z,5.95
2019-06-07T15:55:28.600Z,6.72
2019-06-07T15:57:54.976Z,7.35
2019-06-07T16:00:22.129Z,6.78
2019-06-07T16:02:48.188Z,6.87
2019-06-07T16:05:14.918Z,7.10
2019-06-07T16:07:42.895Z,6.85
2019-06-07T16:10:10.320Z,7.15
2019-06-07T16:12:36.804Z,7.30
2019-06-07T16:15:07.207Z,7.80
2019-06-07T16:17:35.091Z,7.45
2019-06-07T16:20:03.199Z,7.80
2019-06-07T16:22:29.481Z,7.72
2019-06-07T16:24:55.828Z,7.78
2019-06-07T16:27:22.004Z,8.43
2019-06-07T16:29:48.428Z,8.85
2019-06-07T16:32:14.773Z,8.20
2019-06-07T16:34:41.811Z,7.67
2019-06-07T16:37:21.632Z,8.03
2019-06-07T16:39:54.086Z,8.20
2019-06-07T16:42:20.471Z,7.55
2019-06-07T16:44:46.579Z,7.62
2019-06-07T16:47:12.821Z,7.87
2019-06-07T16:49:38.936Z,7.08
2019-06-07T16:52:05.246Z,8.18
2019-06-07T16:54:31.328Z,7.75
2019-06-07T16:56:58.436Z,8.25
2019-06-07T16:59:24.512Z,8.08
2019-06-07T17:01:50.844Z,8.15
2019-06-07T17:04:16.932Z,7.90
2019-06-07T17:06:43.719Z,8.45
2019-06-07T17:09:10.047Z,8.40
2019-06-07T17:11:36.360Z,8.65
2019-06-07T17:14:03.337Z,7.87
2019-06-07T17:16:29.415Z,8.95
2019-06-07T17:18:55.561Z,9.20
2019-06-07T17:21:21.735Z,8.85
2019-06-07T17:23:47.975Z,9.10
2019-06-07T17:26:14.260Z,9.45
2019-06-07T17:28:41.748Z,8.75
2019-06-07T17:31:08.082Z,9.25
2019-06-07T17:33:34.287Z,8.55
2019-06-07T17:36:00.379Z,8.63
2019-06-07T17:38:26.557Z,9.18
2019-06-07T17:40:52.654Z,9.03
2019-06-07T17:43:18.716Z,9.15
2019-06-07T17:45:45.452Z,9.23
2019-06-07T17:48:11.701Z,9.78
2019-06-07T17:50:37.952Z,9.63
2019-06-07T17:53:04.107Z,9.45
2019-06-07T17:55:30.594Z,9.28
2019-06-07T17:57:56.951Z,9.80
2019-06-07T18:00:28.523Z,9.80
2019-06-07T18:02:55.082Z,9.40
2019-06-07T18:05:21.248Z,9.68
2019-06-07T18:07:51.694Z,8.93
2019-06-07T18:10:33.823Z,9.08
2019-06-07T18:12:59.987Z,8.88
2019-06-07T18:15:38.889Z,9.10
2019-06-07T18:18:05.336Z,9.48
2019-06-07T18:20:31.783Z,9.18
2019-06-07T18:22:58.812Z,8.60
2019-06-07T18:25:25.027Z,9.63
2019-06-07T18:27:52.659Z,9.25
2019-06-07T18:30:18.925Z,8.48
2019-06-07T18:32:45.067Z,9.35
2019-06-07T18:35:11.240Z,9.03
2019-06-07T18:37:37.360Z,8.60
2019-06-07T18:40:06.665Z,9.60
2019-06-07T18:42:33.123Z,9.60
2019-06-07T18:44:59.478Z,10.03
2019-06-07T18:47:25.665Z,9.95
2019-06-07T18:49:51.879Z,9.85
2019-06-07T18:52:18.113Z,9.25
2019-06-07T18:54:44.360Z,10.05
2019-06-07T18:57:12.331Z,10.15
2019-06-07T18:59:38.743Z,10.05
2019-06-07T19:02:04.940Z,9.65
2019-06-07T19:04:31.038Z,10.20
2019-06-07T19:06:58.256Z,10.25
2019-06-07T19:09:24.798Z,10.45
2019-06-07T19:11:51.027Z,9.85
2019-06-07T19:14:17.307Z,10.50
2019-06-07T19:16:43.658Z,10.23
2019-06-07T19:19:10.911Z,10.70
2019-06-07T19:21:36.993Z,11.22
2019-06-07T19:24:03.268Z,11.28
2019-06-07T19:26:30.391Z,10.45
2019-06-07T19:28:56.832Z,10.43
2019-06-07T19:31:24.250Z,11.53
2019-06-07T19:33:51.048Z,11.08
2019-06-07T19:36:17.365Z,11.43
2019-06-07T19:38:43.566Z,10.43
2019-06-07T19:41:19.323Z,11.05
2019-06-07T19:43:37.725Z,10.78
2019-06-07T19:46:04.016Z,11.00
2019-06-07T19:48:30.337Z,10.20
2019-06-07T19:50:57.543Z,10.15
2019-06-07T19:53:25.313Z,10.10
2019-06-07T19:55:52.990Z,11.27
2019-06-07T19:58:19.374Z,11.53
2019-06-07T20:00:45.818Z,10.45
2019-06-07T20:03:12.871Z,10.55
2019-06-07T20:05:38.959Z,8.23
2019-06-07T20:08:05.221Z,5.55
2019-06-07T20:10:31.357Z,4.87
2019-06-07T20:12:58.701Z,4.60
2019-06-07T20:15:28.855Z,3.67
2019-06-07T20:17:53.166Z,3.40
2019-06-07T20:20:19.868Z,3.00
2019-06-07T20:22:46.286Z,2.33
2019-06-07T20:25:12.875Z,2.10
2019-06-07T20:27:39.141Z,2.12
2019-06-07T20:30:10.756Z,1.90
2019-06-07T20:32:36.963Z,2.20
2019-06-07T20:35:05.952Z,2.00
2019-06-07T20:37:32.213Z,1.82
2019-06-07T20:40:02.850Z,1.50
2019-06-07T20:42:26.457Z,1.75
2019-06-07T20:44:52.640Z,1.63
2019-06-07T20:47:18.751Z,1.40
2019-06-07T20:49:44.940Z,1.47
2019-06-07T20:52:11.246Z,1.10
2019-06-07T20:54:37.402Z,1.00
2019-06-07T20:57:04.798Z,1.10
2019-06-07T20:59:30.951Z,0.90
2019-06-07T21:01:57.076Z,1.00
2019-06-07T21:04:24.415Z,1.03
2019-06-07T21:06:50.767Z,0.90
2019-06-07T21:09:16.929Z,1.20
2019-06-07T21:11:43.238Z,0.97
2019-06-07T21:14:10.303Z,1.20
2019-06-07T21:16:36.594Z,1.00
2019-06-07T21:19:04.138Z,1.10
2019-06-07T21:21:30.694Z,1.10
2019-06-07T21:23:56.810Z,0.90
2019-06-07T21:26:23.077Z,0.90
2019-06-07T21:28:50.207Z,0.90
2019-06-07T21:31:16.241Z,0.93
2019-06-07T21:33:42.464Z,0.90
2019-06-07T21:36:09.704Z,0.80
2019-06-07T21:38:36.234Z,0.60
2019-06-07T21:41:02.492Z,0.90
2019-06-07T21:43:28.688Z,1.00
2019-06-07T21:46:04.664Z,0.90
2019-06-07T21:48:22.857Z,0.90
2019-06-07T21:50:49.011Z,0.83
2019-06-07T21:53:15.067Z,0.90
2019-06-07T21:55:41.161Z,0.83
2019-06-07T21:58:07.492Z,0.90
2019-06-07T22:00:49.006Z,0.80
2019-06-07T22:03:17.045Z,1.00
2019-06-07T22:05:43.367Z,0.90
2019-06-07T22:08:10.390Z,0.73
2019-06-07T22:10:37.157Z,0.77
2019-06-07T22:13:03.973Z,0.93
2019-06-07T22:15:35.390Z,0.97
2019-06-07T22:17:58.262Z,0.93
2019-06-07T22:20:24.452Z,1.00
2019-06-07T22:22:50.547Z,0.90
2019-06-07T22:25:17.018Z,1.00
2019-06-07T22:27:43.484Z,0.90
2019-06-07T22:30:10.543Z,0.80
2019-06-07T22:32:36.696Z,0.80
2019-06-07T22:35:04.391Z,0.80
2019-06-07T22:37:31.462Z,0.80
2019-06-07T22:39:57.832Z,0.80
2019-06-07T22:42:24.017Z,0.60
2019-06-07T22:44:50.518Z,0.80
2019-06-07T22:47:18.139Z,1.07
2019-06-07T22:49:44.420Z,0.80
2019-06-07T22:52:13.442Z,0.70
2019-06-07T22:54:38.686Z,0.77
2019-06-07T22:57:05.290Z,0.80
2019-06-07T22:59:31.506Z,0.93
2019-06-07T23:01:57.659Z,0.80
2019-06-07T23:04:23.749Z,0.93
2019-06-07T23:06:49.923Z,0.80
2019-06-07T23:09:17.114Z,0.90
2019-06-07T23:11:43.501Z,0.80
2019-06-07T23:14:09.748Z,0.57
2019-06-07T23:16:35.920Z,0.70
2019-06-07T23:19:02.136Z,0.80
2019-06-07T23:21:28.196Z,0.70
2019-06-07T23:23:54.285Z,0.90
2019-06-07T23:26:20.657Z,0.80
2019-06-07T23:28:46.997Z,0.83
2019-06-07T23:31:14.355Z,0.80
2019-06-07T23:33:40.665Z,0.80
2019-06-07T23:36:06.863Z,0.70
2019-06-07T23:38:33.030Z,0.80
2019-06-07T23:40:59.331Z,0.80
2019-06-07T23:43:25.379Z,0.80
2019-06-07T23:45:51.479Z,0.70
2019-06-07T23:48:17.566Z,0.77
2019-06-07T23:50:43.770Z,0.77
2019-06-07T23:53:09.832Z,0.80
2019-06-07T23:55:37.036Z,0.90
2019-06-07T23:58:03.109Z,0.70
